Boultons Beach, New York
Current Conditions -  °F | °C
As of 10:56 PM on Monday 22 Dec 2014 (Local Time) from KART Reporting Station
Overcast Overcast  
Wind Chill: 30°   Ceiling: 3000
Heat Index: 34°   Visibility: 10mi
Dew Point: 28°   Wind: 5mph
Humidity: 79%   Direction: 80°E
Pressure: 30.14"   Gusts: NA
Location:  43.9321°N, 76.0832°W
Report Text: KART 230356Z AUTO 08004KT 10SM OVC030 01/M02 A3014 RMK AO2 SLP212 T00111022
Loading
Personal Weather Stations






























Interactive Weather Map New forecast layout! Learn more

10-Day Weather Forecast

Advertisements
Track Severe Weather on mobile